createdAt,value
2023-03-24T00:02:13.620Z,46.72
2023-03-24T00:04:42.688Z,46.72
2023-03-24T00:07:14.859Z,46.78
2023-03-24T00:09:42.191Z,46.58
2023-03-24T00:12:14.039Z,46.83
2023-03-24T00:14:40.947Z,46.81
2023-03-24T00:17:13.876Z,46.66
2023-03-24T00:19:41.058Z,46.87
2023-03-24T00:22:08.130Z,46.93
2023-03-24T00:24:35.312Z,46.90
2023-03-24T00:27:03.450Z,47.06
2023-03-24T00:29:30.155Z,47.14
2023-03-24T00:31:59.567Z,46.94
2023-03-24T00:34:29.433Z,47.00
2023-03-24T00:36:58.877Z,47.23
2023-03-24T00:39:27.729Z,47.15
2023-03-24T00:41:58.831Z,46.96
2023-03-24T00:44:25.530Z,47.32
2023-03-24T00:46:57.483Z,46.89
2023-03-24T00:49:42.070Z,47.09
2023-03-24T00:52:14.300Z,47.08
2023-03-24T00:54:46.011Z,47.12
2023-03-24T00:57:21.664Z,47.22
2023-03-24T00:59:52.330Z,47.10
2023-03-24T01:02:22.562Z,47.28
2023-03-24T01:04:54.277Z,47.41
2023-03-24T01:07:26.848Z,47.19
2023-03-24T01:09:59.751Z,47.49
2023-03-24T01:12:30.118Z,47.60
2023-03-24T01:15:00.401Z,47.71
2023-03-24T01:17:34.638Z,47.84
2023-03-24T01:20:08.394Z,47.70
2023-03-24T01:22:40.060Z,40.64
2023-03-24T01:25:16.627Z,44.26
2023-03-24T01:27:49.456Z,46.18
2023-03-24T01:30:19.821Z,47.20
2023-03-24T01:32:46.638Z,46.61
2023-03-24T01:35:16.540Z,46.73
2023-03-24T01:37:43.229Z,46.75
2023-03-24T01:40:12.524Z,46.78
2023-03-24T01:42:42.505Z,46.80
2023-03-24T01:45:40.648Z,46.74
2023-03-24T01:48:29.222Z,47.17
2023-03-24T01:51:11.289Z,46.95
2023-03-24T01:53:40.833Z,47.04
2023-03-24T01:56:08.104Z,46.77
2023-03-24T01:58:35.330Z,46.95
2023-03-24T02:01:02.490Z,47.06
2023-03-24T02:03:34.034Z,47.07
2023-03-24T02:06:03.561Z,46.93
2023-03-24T02:08:46.833Z,46.96
2023-03-24T02:11:15.879Z,46.93
2023-03-24T02:13:44.685Z,47.08
2023-03-24T02:16:33.316Z,46.71
2023-03-24T02:19:26.643Z,46.82
2023-03-24T02:22:08.642Z,46.84
2023-03-24T02:24:38.107Z,47.07
2023-03-24T02:27:30.043Z,46.78
2023-03-24T02:29:56.629Z,46.92
2023-03-24T02:32:35.385Z,46.76
2023-03-24T02:35:16.072Z,46.74
2023-03-24T02:37:43.034Z,46.89
2023-03-24T02:40:18.792Z,47.12
2023-03-24T02:43:03.807Z,46.84
2023-03-24T02:45:40.452Z,46.98
2023-03-24T02:48:19.226Z,47.11
2023-03-24T02:51:16.333Z,47.01
2023-03-24T02:53:59.105Z,47.14
2023-03-24T02:56:48.006Z,47.07
2023-03-24T02:59:45.043Z,46.90
2023-03-24T03:02:19.903Z,46.76
2023-03-24T03:04:50.053Z,46.78
2023-03-24T03:07:21.938Z,46.46
2023-03-24T03:10:11.052Z,46.72
2023-03-24T03:12:40.250Z,46.67
2023-03-24T03:15:12.254Z,46.71
2023-03-24T03:17:41.596Z,46.63
2023-03-24T03:20:13.548Z,46.69
2023-03-24T03:22:49.014Z,46.57
2023-03-24T03:25:20.856Z,46.60
2023-03-24T03:27:47.602Z,46.62
2023-03-24T03:30:19.139Z,46.42
2023-03-24T03:32:56.678Z,46.44
2023-03-24T03:35:28.200Z,46.34
2023-03-24T03:38:14.761Z,46.23
2023-03-24T03:41:00.180Z,46.41
2023-03-24T03:43:27.358Z,46.33
2023-03-24T03:45:56.626Z,46.45
2023-03-24T03:48:26.835Z,46.46
2023-03-24T03:51:03.093Z,46.38
2023-03-24T03:54:09.022Z,46.52
2023-03-24T03:59:34.035Z,46.31
2023-03-24T04:02:38.096Z,46.13
2023-03-24T04:05:27.686Z,46.29
2023-03-24T04:08:12.668Z,46.17
2023-03-24T04:10:57.416Z,46.36
2023-03-24T04:13:42.510Z,46.32
2023-03-24T04:16:17.970Z,46.45
2023-03-24T04:19:09.804Z,46.10
2023-03-24T04:21:39.460Z,46.29
2023-03-24T04:24:26.446Z,46.29
2023-03-24T04:27:01.520Z,46.30
2023-03-24T04:29:37.084Z,46.31
2023-03-24T04:32:41.608Z,46.41
2023-03-24T04:35:31.761Z,46.25
2023-03-24T04:38:09.240Z,46.26
2023-03-24T04:40:39.070Z,46.24
2023-03-24T04:43:11.405Z,46.08
2023-03-24T04:45:38.392Z,46.17
2023-03-24T04:48:09.961Z,46.03
2023-03-24T04:50:37.520Z,46.10
2023-03-24T04:53:05.082Z,46.09
2023-03-24T04:55:37.881Z,46.13
2023-03-24T04:58:07.723Z,46.07
2023-03-24T05:00:37.051Z,46.12
2023-03-24T05:03:06.478Z,45.91
2023-03-24T05:05:36.000Z,46.04
2023-03-24T05:08:02.612Z,46.09
2023-03-24T05:10:29.565Z,45.96
2023-03-24T05:12:58.869Z,46.18
2023-03-24T05:15:25.492Z,46.18
2023-03-24T05:17:53.096Z,46.08
2023-03-24T05:20:24.619Z,46.19
2023-03-24T05:22:59.603Z,45.85
2023-03-24T05:25:26.384Z,46.05
2023-03-24T05:27:55.961Z,45.98
2023-03-24T05:30:27.362Z,45.89
2023-03-24T05:32:59.451Z,46.04
2023-03-24T05:35:28.836Z,46.13
2023-03-24T05:37:56.205Z,46.06
2023-03-24T05:40:30.792Z,45.98
2023-03-24T05:42:57.541Z,45.91
2023-03-24T05:45:29.575Z,46.12
2023-03-24T05:47:56.810Z,46.05
2023-03-24T05:50:25.950Z,45.88
2023-03-24T05:52:55.348Z,46.05
2023-03-24T05:55:24.125Z,46.03
2023-03-24T05:57:53.033Z,45.92
2023-03-24T06:00:20.764Z,46.00
2023-03-24T06:02:47.552Z,45.84
2023-03-24T06:05:17.330Z,45.81
2023-03-24T06:07:46.420Z,46.10
2023-03-24T06:10:14.591Z,46.01
2023-03-24T06:12:41.540Z,45.99
2023-03-24T06:15:08.970Z,46.06
2023-03-24T06:17:38.588Z,45.78
2023-03-24T06:20:12.391Z,45.83
2023-03-24T06:22:41.217Z,45.89
2023-03-24T06:25:09.757Z,45.78
2023-03-24T06:27:42.514Z,45.81
2023-03-24T06:30:09.633Z,45.86
2023-03-24T06:32:39.053Z,45.69
2023-03-24T06:35:07.352Z,45.66
2023-03-24T06:37:45.099Z,45.75
2023-03-24T06:40:15.404Z,45.72
2023-03-24T06:42:44.823Z,45.56
2023-03-24T06:45:14.734Z,45.46
2023-03-24T06:47:46.161Z,39.87
2023-03-24T06:50:15.036Z,39.37
2023-03-24T06:52:44.524Z,37.75
2023-03-24T06:55:13.655Z,37.98
2023-03-24T06:57:42.462Z,39.12
2023-03-24T07:00:11.839Z,37.78
2023-03-24T07:02:38.758Z,38.64
2023-03-24T07:05:08.151Z,37.90
2023-03-24T07:08:16.798Z,38.90
2023-03-24T07:10:24.680Z,38.29
2023-03-24T07:12:51.487Z,38.63
2023-03-24T07:15:20.653Z,39.19
2023-03-24T07:17:50.463Z,39.86
2023-03-24T07:23:07.590Z,39.26
2023-03-24T07:25:36.656Z,38.96
2023-03-24T07:28:06.003Z,39.33
2023-03-24T07:30:40.551Z,38.38
2023-03-24T07:33:15.200Z,38.53
2023-03-24T07:35:51.153Z,38.58
2023-03-24T07:38:19.973Z,38.93
2023-03-24T07:40:48.733Z,38.94
2023-03-24T07:43:20.629Z,39.26
2023-03-24T07:45:49.958Z,38.19
2023-03-24T07:48:21.444Z,38.56
2023-03-24T07:50:47.872Z,38.94
2023-03-24T07:53:20.147Z,38.75
2023-03-24T07:55:47.078Z,39.93
2023-03-24T07:58:19.080Z,40.58
2023-03-24T08:00:48.304Z,40.55
2023-03-24T08:03:15.623Z,40.77
2023-03-24T08:05:45.267Z,40.86
2023-03-24T08:08:14.035Z,40.96
2023-03-24T08:10:40.665Z,40.98
2023-03-24T08:13:07.490Z,40.90
2023-03-24T08:15:38.005Z,41.16
2023-03-24T08:18:04.700Z,41.23
2023-03-24T08:20:31.337Z,41.25
2023-03-24T08:22:58.040Z,41.14
2023-03-24T08:25:25.746Z,41.13
2023-03-24T08:27:57.130Z,41.25
2023-03-24T08:30:25.207Z,41.42
2023-03-24T08:32:59.259Z,41.60
2023-03-24T08:35:38.738Z,41.30
2023-03-24T08:38:07.160Z,41.20
2023-03-24T08:40:37.055Z,40.86
2023-03-24T08:43:08.416Z,40.96
2023-03-24T08:45:37.685Z,40.39
2023-03-24T08:48:05.821Z,39.88
2023-03-24T08:50:39.523Z,39.54
2023-03-24T08:53:08.796Z,39.52
2023-03-24T08:55:37.913Z,39.47
2023-03-24T08:58:07.290Z,39.10
2023-03-24T09:00:38.787Z,39.09
2023-03-24T09:03:07.624Z,39.42
2023-03-24T09:05:44.394Z,39.45
2023-03-24T09:08:17.225Z,39.13
2023-03-24T09:10:46.893Z,39.29
2023-03-24T09:13:15.921Z,39.26
2023-03-24T09:15:49.983Z,38.87
2023-03-24T09:18:19.325Z,39.11
2023-03-24T09:20:48.979Z,39.19
2023-03-24T09:23:22.168Z,39.38
2023-03-24T09:25:52.141Z,39.14
2023-03-24T09:28:19.015Z,39.21
2023-03-24T09:30:48.260Z,39.37
2023-03-24T09:33:15.422Z,39.14
2023-03-24T09:35:42.395Z,38.77
2023-03-24T09:38:12.384Z,38.77
2023-03-24T09:40:55.844Z,38.09
2023-03-24T09:43:40.991Z,37.95
2023-03-24T09:46:14.947Z,38.20
2023-03-24T09:48:50.988Z,37.89
2023-03-24T09:51:29.766Z,38.72
2023-03-24T09:54:18.382Z,38.16
2023-03-24T09:56:52.359Z,38.16
2023-03-24T09:59:28.996Z,38.12
2023-03-24T10:01:55.688Z,38.03
2023-03-24T10:04:27.229Z,37.80
2023-03-24T10:07:16.813Z,38.36
2023-03-24T10:09:43.450Z,38.27
2023-03-24T10:12:28.376Z,37.66
2023-03-24T10:18:01.246Z,37.49
2023-03-24T10:20:55.024Z,37.28
2023-03-24T10:23:57.266Z,37.27
2023-03-24T10:26:49.850Z,37.08
2023-03-24T10:29:30.977Z,37.70
2023-03-24T10:32:03.060Z,37.02
2023-03-24T10:34:34.867Z,36.84
2023-03-24T10:37:07.466Z,37.72
2023-03-24T10:39:44.288Z,37.30
2023-03-24T10:42:25.699Z,36.92
2023-03-24T10:44:54.534Z,37.07
2023-03-24T10:47:32.885Z,37.04
2023-03-24T10:50:12.583Z,37.05
2023-03-24T10:52:46.979Z,36.66
2023-03-24T10:55:23.046Z,37.07
2023-03-24T10:57:51.029Z,36.93
2023-03-24T11:00:24.381Z,36.64
2023-03-24T11:03:01.739Z,37.79
2023-03-24T11:05:38.463Z,36.74
2023-03-24T11:08:17.510Z,37.25
2023-03-24T11:10:49.601Z,37.00
2023-03-24T11:13:19.064Z,37.08
2023-03-24T11:16:14.229Z,36.79
2023-03-24T11:18:58.299Z,36.82
2023-03-24T11:21:25.270Z,36.84
2023-03-24T11:23:54.681Z,37.01
2023-03-24T11:26:31.154Z,36.95
2023-03-24T11:29:10.749Z,36.57
2023-03-24T11:31:40.049Z,36.92
2023-03-24T11:34:20.049Z,37.48
2023-03-24T11:36:51.262Z,37.38
2023-03-24T11:39:21.591Z,36.71
2023-03-24T11:42:12.868Z,37.14
2023-03-24T11:44:39.322Z,36.66
2023-03-24T11:47:13.350Z,37.47
2023-03-24T11:49:52.288Z,36.84
2023-03-24T11:52:37.130Z,37.28
2023-03-24T11:55:17.655Z,37.20
2023-03-24T11:57:59.023Z,37.15
2023-03-24T12:00:51.282Z,37.25
2023-03-24T12:03:39.615Z,36.03
2023-03-24T12:06:40.176Z,36.47
2023-03-24T12:09:30.176Z,37.01
2023-03-24T12:12:08.122Z,36.92
2023-03-24T12:15:25.127Z,36.94
2023-03-24T12:18:03.419Z,37.11
2023-03-24T12:20:40.673Z,37.31
2023-03-24T12:23:13.274Z,37.19
2023-03-24T12:25:47.068Z,37.10
2023-03-24T12:28:33.030Z,36.77
2023-03-24T12:31:13.022Z,36.57
2023-03-24T12:34:04.195Z,36.86
2023-03-24T12:37:09.244Z,37.08
2023-03-24T12:39:39.489Z,36.76
2023-03-24T12:42:19.662Z,36.18
2023-03-24T12:45:01.623Z,36.26
2023-03-24T12:47:43.518Z,36.99
2023-03-24T12:50:13.177Z,36.75
2023-03-24T12:53:08.568Z,36.72
2023-03-24T12:55:57.244Z,36.54
2023-03-24T12:58:45.778Z,36.08
2023-03-24T13:01:33.135Z,35.25
2023-03-24T13:04:09.656Z,32.42
2023-03-24T13:07:03.634Z,33.77
2023-03-24T13:10:01.815Z,34.81
2023-03-24T13:12:55.383Z,35.10
2023-03-24T13:15:34.101Z,35.57
2023-03-24T13:18:00.786Z,36.11
2023-03-24T13:20:35.191Z,35.88
2023-03-24T13:23:12.222Z,35.71
2023-03-24T13:26:06.460Z,34.17
2023-03-24T13:28:38.692Z,34.75
2023-03-24T13:31:05.415Z,35.25
2023-03-24T13:33:32.366Z,35.89
2023-03-24T13:36:30.104Z,35.96
2023-03-24T13:39:04.130Z,36.35
2023-03-24T13:41:37.494Z,36.10
2023-03-24T13:44:07.395Z,35.62
2023-03-24T13:46:40.217Z,36.17
2023-03-24T13:49:09.053Z,35.92
2023-03-24T13:51:41.082Z,36.14
2023-03-24T13:54:22.317Z,35.73
2023-03-24T13:56:55.754Z,35.73
2023-03-24T13:59:30.437Z,36.18
2023-03-24T14:02:12.113Z,36.58
2023-03-24T14:05:02.309Z,36.74
2023-03-24T14:07:42.096Z,36.33
2023-03-24T14:10:14.832Z,34.69
2023-03-24T14:12:53.489Z,33.96
2023-03-24T14:15:23.787Z,31.87
2023-03-24T14:17:53.692Z,33.36
2023-03-24T14:20:38.132Z,29.17
2023-03-24T14:23:06.939Z,30.34
2023-03-24T14:25:36.867Z,29.99
2023-03-24T14:28:28.264Z,28.68
2023-03-24T14:31:15.594Z,28.82
2023-03-24T14:33:54.461Z,28.22
2023-03-24T14:36:30.552Z,28.43
2023-03-24T14:39:00.989Z,28.89
2023-03-24T14:41:31.929Z,28.36
2023-03-24T14:43:59.186Z,27.70
2023-03-24T14:46:53.353Z,27.95
2023-03-24T14:49:30.265Z,27.54
2023-03-24T14:52:18.028Z,27.43
2023-03-24T14:54:56.630Z,28.88
2023-03-24T14:57:31.550Z,27.85
2023-03-24T15:00:27.381Z,30.22
2023-03-24T15:03:11.158Z,27.95
2023-03-24T15:05:40.789Z,27.69
2023-03-24T15:08:10.570Z,28.00
2023-03-24T15:10:42.451Z,27.68
2023-03-24T15:13:51.423Z,27.62
2023-03-24T15:16:21.491Z,27.85
2023-03-24T15:21:47.889Z,28.45
2023-03-24T15:24:30.961Z,28.26
2023-03-24T15:27:09.823Z,29.23
2023-03-24T15:29:40.841Z,31.34
2023-03-24T15:32:10.666Z,31.64
2023-03-24T15:34:40.240Z,32.16
2023-03-24T15:37:09.685Z,32.52
2023-03-24T15:39:37.562Z,32.56
2023-03-24T15:42:15.928Z,32.67
2023-03-24T15:44:42.572Z,33.14
2023-03-24T15:47:26.247Z,33.09
2023-03-24T15:49:54.867Z,33.43
2023-03-24T15:52:27.365Z,33.68
2023-03-24T15:54:57.411Z,33.68
2023-03-24T15:57:27.245Z,33.83
2023-03-24T16:00:09.017Z,34.10
2023-03-24T16:02:55.131Z,34.11
2023-03-24T16:05:29.170Z,34.25
2023-03-24T16:08:23.475Z,34.26
2023-03-24T16:11:03.301Z,34.32
2023-03-24T16:13:32.245Z,34.53
2023-03-24T16:16:21.713Z,34.50
2023-03-24T16:18:52.814Z,34.59
2023-03-24T16:21:25.679Z,34.70
2023-03-24T16:23:58.048Z,34.91
2023-03-24T16:26:28.051Z,34.72
2023-03-24T16:28:55.528Z,35.03
2023-03-24T16:31:27.403Z,35.03
2023-03-24T16:33:59.438Z,35.09
2023-03-24T16:36:26.788Z,34.87
2023-03-24T16:39:19.030Z,34.87
2023-03-24T16:41:45.858Z,34.98
2023-03-24T16:44:17.223Z,35.10
2023-03-24T16:46:48.881Z,35.13
2023-03-24T16:49:19.272Z,35.10
2023-03-24T16:51:49.228Z,34.89
2023-03-24T16:54:18.072Z,35.06
2023-03-24T16:56:47.656Z,35.18
2023-03-24T16:59:15.686Z,35.18
2023-03-24T17:01:47.626Z,35.34
2023-03-24T17:04:22.252Z,35.31
2023-03-24T17:06:53.379Z,35.09
2023-03-24T17:09:23.188Z,35.40
2023-03-24T17:11:57.558Z,35.43
2023-03-24T17:14:24.368Z,35.36
2023-03-24T17:16:53.963Z,35.57
2023-03-24T17:19:21.811Z,35.31
2023-03-24T17:22:05.483Z,35.44
2023-03-24T17:24:38.120Z,35.56
2023-03-24T17:27:15.107Z,35.63
2023-03-24T17:29:41.971Z,35.67
2023-03-24T17:32:08.723Z,35.57
2023-03-24T17:34:35.382Z,35.60
2023-03-24T17:37:04.300Z,35.45
2023-03-24T17:39:33.086Z,35.72
2023-03-24T17:42:02.379Z,35.78
2023-03-24T17:44:33.867Z,35.84
2023-03-24T17:47:02.951Z,35.62
2023-03-24T17:49:35.084Z,35.90
2023-03-24T17:52:04.736Z,35.91
2023-03-24T17:54:31.466Z,35.92
2023-03-24T17:57:19.323Z,35.97
2023-03-24T17:59:46.351Z,35.89
2023-03-24T18:02:17.666Z,35.77
2023-03-24T18:04:47.446Z,35.86
2023-03-24T18:07:19.709Z,35.90
2023-03-24T18:09:46.482Z,35.91
2023-03-24T18:12:13.124Z,36.10
2023-03-24T18:14:39.768Z,36.11
2023-03-24T18:17:09.524Z,36.05
2023-03-24T18:19:36.465Z,35.90
2023-03-24T18:22:03.151Z,36.17
2023-03-24T18:24:30.071Z,36.12
2023-03-24T18:26:59.160Z,36.09
2023-03-24T18:29:26.538Z,35.96
2023-03-24T18:31:53.314Z,36.03
2023-03-24T18:34:23.137Z,36.20
2023-03-24T18:36:50.185Z,36.36
2023-03-24T18:39:17.093Z,36.71
2023-03-24T18:41:43.965Z,36.58
2023-03-24T18:44:15.326Z,36.69
2023-03-24T18:46:42.773Z,36.73
2023-03-24T18:49:16.223Z,36.86
2023-03-24T18:51:45.069Z,36.89
2023-03-24T18:54:12.548Z,37.19
2023-03-24T18:56:44.017Z,37.16
2023-03-24T18:59:17.991Z,37.18
2023-03-24T19:01:47.371Z,37.31
2023-03-24T19:04:19.346Z,37.35
2023-03-24T19:06:50.404Z,37.49
2023-03-24T19:09:21.020Z,37.60
2023-03-24T19:11:51.152Z,37.72
2023-03-24T19:14:17.796Z,37.91
2023-03-24T19:16:46.870Z,37.98
2023-03-24T19:19:18.495Z,37.93
2023-03-24T19:21:45.160Z,38.26
2023-03-24T19:24:14.017Z,38.11
2023-03-24T19:26:42.882Z,38.22
2023-03-24T19:29:11.802Z,38.33
2023-03-24T19:31:40.916Z,38.32
2023-03-24T19:34:07.576Z,38.41
2023-03-24T19:36:36.985Z,38.49
2023-03-24T19:39:04.627Z,38.45
2023-03-24T19:41:33.657Z,38.66
2023-03-24T19:44:00.424Z,38.72
2023-03-24T19:46:27.196Z,38.80
2023-03-24T19:48:58.809Z,38.65
2023-03-24T19:51:25.541Z,38.50
2023-03-24T19:53:54.297Z,38.69
2023-03-24T19:56:25.591Z,38.79
2023-03-24T19:58:54.752Z,38.84
2023-03-24T20:01:26.151Z,38.65
2023-03-24T20:03:53.234Z,38.64
2023-03-24T20:06:24.568Z,38.74
2023-03-24T20:08:53.619Z,38.70
2023-03-24T20:11:25.669Z,38.86
2023-03-24T20:13:54.476Z,38.76
2023-03-24T20:16:21.349Z,38.60
2023-03-24T20:18:53.046Z,38.60
2023-03-24T20:21:22.667Z,38.57
2023-03-24T20:23:50.414Z,38.67
2023-03-24T20:26:19.803Z,38.68
2023-03-24T20:28:46.771Z,38.57
2023-03-24T20:31:18.206Z,38.82
2023-03-24T20:33:47.199Z,38.62
2023-03-24T20:36:15.992Z,38.21
2023-03-24T20:38:45.037Z,38.42
2023-03-24T20:41:19.461Z,38.31
2023-03-24T20:43:48.931Z,38.56
2023-03-24T20:46:16.847Z,38.47
2023-03-24T20:48:45.672Z,38.38
2023-03-24T20:51:14.754Z,38.56
2023-03-24T20:53:44.700Z,38.61
2023-03-24T20:56:15.118Z,38.67
2023-03-24T20:58:42.525Z,38.87
2023-03-24T21:01:12.454Z,38.90
2023-03-24T21:03:41.344Z,38.92
2023-03-24T21:06:10.665Z,38.84
2023-03-24T21:08:37.872Z,38.91
2023-03-24T21:11:04.656Z,38.82
2023-03-24T21:16:09.089Z,39.01
2023-03-24T21:18:36.838Z,39.02
2023-03-24T21:21:05.853Z,39.19
2023-03-24T21:23:39.337Z,39.34
2023-03-24T21:26:10.036Z,39.50
2023-03-24T21:28:36.733Z,39.37
2023-03-24T21:31:08.406Z,39.56
2023-03-24T21:33:40.139Z,39.58
2023-03-24T21:36:11.375Z,39.79
2023-03-24T21:38:39.184Z,39.52
2023-03-24T21:41:08.568Z,39.76
2023-03-24T21:43:35.326Z,39.74
2023-03-24T21:46:04.153Z,40.82
2023-03-24T21:48:35.087Z,41.14
2023-03-24T21:51:06.762Z,41.41
2023-03-24T21:53:36.030Z,41.40
2023-03-24T21:56:05.575Z,41.04
2023-03-24T21:58:35.028Z,41.71
2023-03-24T22:01:01.740Z,41.66
2023-03-24T22:03:34.560Z,41.97
2023-03-24T22:06:03.749Z,41.69
2023-03-24T22:08:32.781Z,41.87
2023-03-24T22:11:00.951Z,42.28
2023-03-24T22:13:28.063Z,41.93
2023-03-24T22:15:57.423Z,43.60
2023-03-24T22:18:27.354Z,43.49
2023-03-24T22:20:55.066Z,43.20
2023-03-24T22:23:24.504Z,43.94
2023-03-24T22:25:57.533Z,43.70
2023-03-24T22:28:26.451Z,44.29
2023-03-24T22:31:01.843Z,43.96
2023-03-24T22:33:30.744Z,44.67
2023-03-24T22:35:58.153Z,44.85
2023-03-24T22:38:27.664Z,44.88
2023-03-24T22:41:00.781Z,44.64
2023-03-24T22:43:27.970Z,44.90
2023-03-24T22:45:56.941Z,45.03
2023-03-24T22:48:28.852Z,45.17
2023-03-24T22:50:58.212Z,45.15
2023-03-24T22:53:27.091Z,45.31
2023-03-24T22:55:56.460Z,45.08
2023-03-24T22:58:25.480Z,45.31
2023-03-24T23:00:54.646Z,44.86
2023-03-24T23:03:24.372Z,45.08
2023-03-24T23:05:53.813Z,44.94
2023-03-24T23:08:20.573Z,45.17
2023-03-24T23:10:47.682Z,44.89
2023-03-24T23:13:20.169Z,45.66
2023-03-24T23:15:48.071Z,45.30
2023-03-24T23:18:15.708Z,45.77
2023-03-24T23:20:49.333Z,45.00
2023-03-24T23:23:16.744Z,45.86
2023-03-24T23:25:48.764Z,45.91
2023-03-24T23:28:15.666Z,46.12
2023-03-24T23:30:42.443Z,46.21
2023-03-24T23:33:15.065Z,45.78
2023-03-24T23:35:41.863Z,46.11
2023-03-24T23:38:13.168Z,46.02
2023-03-24T23:40:44.544Z,46.38
2023-03-24T23:43:14.049Z,45.95
2023-03-24T23:45:43.537Z,46.62
2023-03-24T23:48:12.399Z,46.31
2023-03-24T23:50:41.546Z,46.71
2023-03-24T23:53:11.087Z,46.29
2023-03-24T23:55:42.418Z,46.52
2023-03-24T23:58:11.271Z,46.50
